• Join FlightAware (Why Join?)
  • Login
  • US Flag 
03:30PM EDT


 

Airport Tracker/Info


-or-


 

Live Flight TrackerFlight Track Log ✈ SWA3232 ✈ 31-Aug-2013 ✈ KOAK - KBUR

Flight Track Log - Related Links

Times and Time Zones

All times are in EDT time to prevent confusion due to time zone crossing. See the SWA3232 flight status page for this flight to view local times or setup timezone preferences in your user account.

Time Position Orientation Groundspeed Altitude Reporting Facility
EDT Latitude Longitude Course Direction KTS MPH feet Rate Location/Type
10:32AM 37.7167 -122.2500 150° Southeast 146 168 1,700  Level Northern Cal TRACON
10:33AM 37.7500 -122.3000 310° West 214 246 5,000 3,660 Climbing Northern Cal TRACON
10:34AM 37.7667 -122.3833 284° West 229 264 9,100 3,600 Climbing Northern Cal TRACON
10:35AM 37.7167 -122.4167 208° Southwest 223 257 12,200 2,700 Climbing Northern Cal TRACON
10:36AM 37.6500 -122.4167 180° South 328 377 14,500 2,760 Climbing Northern Cal TRACON
10:38AM 37.3326 -122.3637 150° Southeast  Level FlightAware Approximate
10:38AM 37.5614 -122.3197 139° Southeast 344 396 18,600  Level Oakland Center
10:39AM 37.4831 -122.2400 141° Southeast 362 417 20,800 2,520 Climbing Oakland Center
10:40AM 37.4006 -122.1556 141° Southeast 381 438 23,800 2,640 Climbing Oakland Center
10:41AM 37.3131 -122.0667 141° Southeast 402 463 26,200 2,280 Climbing Oakland Center
10:42AM 37.2211 -121.9714 140° Southeast 426 490 28,500 2,520 Climbing Oakland Center
10:43AM 37.1283 -121.8750 140° Southeast 434 499 31,400 2,160 Climbing Oakland Center
10:44AM 37.0147 -121.7650 142° Southeast 432 497 33,000 780 Climbing Oakland Center
10:45AM 36.9225 -121.6714 141° Southeast 427 491 33,000  Level Oakland Center
10:46AM 36.8319 -121.5794 141° Southeast 422 486 33,000  Level Oakland Center
10:47AM 36.7456 -121.4917 141° Southeast 422 486 33,000  Level Oakland Center
10:48AM 36.6544 -121.4000 141° Southeast 422 486 33,000  Level Oakland Center
10:50AM 36.4522 -121.1994 141° Southeast 423 487 33,000  Level Los Angeles Center
10:51AM 36.3594 -121.1064 141° Southeast 426 490 33,000  Level Los Angeles Center
10:52AM 36.2861 -121.0311 140° Southeast 428 493 33,000  Level Oakland Center
10:53AM 36.1756 -120.9208 141° Southeast 427 491 33,000  Level Oakland Center
10:54AM 36.0831 -120.8294 141° Southeast 426 490 33,000  Level Oakland Center
10:55AM 35.9917 -120.7389 141° Southeast 423 487 33,000  Level Oakland Center
10:56AM 35.8994 -120.6475 141° Southeast 422 486 33,000  Level Oakland Center
10:57AM 35.8072 -120.5569 141° Southeast 424 488 33,000  Level Oakland Center
10:58AM 35.7153 -120.4672 142° Southeast 423 487 33,000  Level Oakland Center
10:59AM 35.6228 -120.3761 141° Southeast 422 486 33,000  Level Oakland Center
11:00AM 35.5308 -120.2861 141° Southeast 418 481 33,000  Level Oakland Center
11:01AM 35.4314 -120.1914 142° Southeast 424 488 33,000  Level Oakland Center
11:02AM 35.3425 -120.1031 141° Southeast 422 486 33,000 -300 Level Oakland Center
11:03AM 35.2503 -120.0150 142° Southeast 420 483 32,500 -1,080 Descending Oakland Center
11:04AM 35.1589 -119.9272 142° Southeast 416 479 30,900 -1,980 Descending Oakland Center
11:05AM 35.0706 -119.8375 140° Southeast 415 478 28,500 -2,280 Descending Oakland Center
11:06AM 34.9967 -119.7336 131° Southeast 409 471 26,300 -2,160 Descending Oakland Center
11:07AM 34.9225 -119.6353 133° Southeast 399 459 24,200 -2,040 Descending Oakland Center
11:08AM 34.8533 -119.5414 132° Southeast 379 436 22,200 -1,980 Descending Oakland Center
11:09AM 34.7836 -119.4489 133° Southeast 374 430 20,200 -1,920 Descending Oakland Center
11:10AM 34.7194 -119.3611 132° Southeast 357 411 18,300 -2,100 Descending Oakland Center
11:11AM 34.6436 -119.2611 133° Southeast 340 391 16,000 -1,980 Descending Oakland Center
11:13AM 34.5717 -119.1681 133° Southeast 329 379 13,800 -1,920 Descending Los Angeles Center
11:14AM 34.5014 -119.0714 131° Southeast 319 367 11,600 -1,440 Descending Los Angeles Center
11:15AM 34.4444 -118.9975 133° Southeast 299 344 10,900 -1,080 Descending Los Angeles Center
11:16AM 34.3931 -118.9219 129° Southeast 293 337 9,400 -1,560 Descending Los Angeles Center
11:17AM 34.3469 -118.8431 125° Southeast 289 333 7,800 -1,500 Descending Los Angeles Center
11:18AM 34.2994 -118.7728 129° Southeast 274 315 6,400 -1,080 Descending Los Angeles Center
11:19AM 34.2561 -118.7008 126° Southeast 267 307 5,600 -720 Descending Los Angeles Center
11:20AM 34.2339 -118.6311 111° Southeast 230 265 5,000 -960 Descending Los Angeles Center
11:21AM 34.2167 -118.5500 104° East 226 260 3,800 -1,200 Descending Southern California TRACON
11:22AM 34.2000 -118.4833 107° East 187 215 2,800 -960 Descending Southern California TRACON
11:23AM 34.2000 -118.4333 90° East 146 168 1,900 -900 Descending Southern California TRACON
11:24AM 34.2000 -118.4000 90° East 129 148 1,100 -840 Descending Southern California TRACON
11:26AM 34.2000 -118.3500 95° East  Level FlightAware Approximate